createdAt,value
2019-01-06T00:00:37.637Z,0.00
2019-01-06T00:01:37.609Z,0.00
2019-01-06T00:02:37.597Z,0.00
2019-01-06T00:03:37.597Z,0.00
2019-01-06T00:04:37.574Z,0.00
2019-01-06T00:05:37.583Z,0.00
2019-01-06T00:06:37.558Z,0.00
2019-01-06T00:07:37.542Z,0.00
2019-01-06T00:08:37.530Z,0.00
2019-01-06T00:09:37.517Z,0.00
2019-01-06T00:10:37.526Z,0.00
2019-01-06T00:11:37.496Z,0.00
2019-01-06T00:12:37.485Z,0.00
2019-01-06T00:13:37.473Z,0.00
2019-01-06T00:14:37.467Z,0.00
2019-01-06T00:15:37.470Z,0.00
2019-01-06T00:16:37.440Z,0.00
2019-01-06T00:17:37.428Z,0.00
2019-01-06T00:18:37.416Z,0.00
2019-01-06T00:19:37.405Z,0.00
2019-01-06T00:20:37.412Z,0.00
2019-01-06T00:21:37.382Z,0.00
2019-01-06T00:22:37.374Z,0.00
2019-01-06T00:23:37.366Z,0.00
2019-01-06T00:24:37.351Z,0.00
2019-01-06T00:25:37.357Z,0.00
2019-01-06T00:26:37.328Z,0.00
2019-01-06T00:27:37.316Z,0.00
2019-01-06T00:28:37.305Z,0.00
2019-01-06T00:29:37.292Z,0.00
2019-01-06T00:30:37.302Z,0.00
2019-01-06T00:31:37.273Z,0.00
2019-01-06T00:32:37.264Z,0.00
2019-01-06T00:33:37.248Z,0.00
2019-01-06T00:34:37.236Z,0.00
2019-01-06T00:35:37.242Z,0.00
2019-01-06T00:36:37.215Z,0.00
2019-01-06T00:37:37.204Z,0.00
2019-01-06T00:38:37.192Z,0.00
2019-01-06T00:39:37.181Z,0.00
2019-01-06T00:40:37.187Z,0.00
2019-01-06T00:41:37.159Z,0.00
2019-01-06T00:42:37.147Z,0.00
2019-01-06T00:43:37.145Z,0.00
2019-01-06T00:44:37.124Z,0.00
2019-01-06T00:45:37.134Z,0.00
2019-01-06T00:46:37.103Z,0.00
2019-01-06T00:47:37.090Z,0.00
2019-01-06T00:48:37.080Z,0.00
2019-01-06T00:49:37.068Z,0.00
2019-01-06T00:50:37.074Z,0.00
2019-01-06T00:51:37.046Z,0.00
2019-01-06T00:52:37.037Z,0.00
2019-01-06T00:53:37.024Z,0.00
2019-01-06T00:54:37.021Z,0.00
2019-01-06T00:55:37.019Z,0.00
2019-01-06T00:56:36.994Z,0.00
2019-01-06T00:57:36.982Z,0.00
2019-01-06T00:58:36.974Z,0.00
2019-01-06T00:59:36.957Z,0.00
2019-01-06T01:00:36.964Z,0.00
2019-01-06T01:01:36.936Z,0.00
2019-01-06T01:02:38.572Z,0.00
2019-01-06T01:03:36.913Z,0.00
2019-01-06T01:04:36.903Z,0.00
2019-01-06T01:05:36.908Z,0.00
2019-01-06T01:06:36.880Z,0.00
2019-01-06T01:07:36.868Z,0.00
2019-01-06T01:08:36.856Z,0.00
2019-01-06T01:09:36.849Z,0.00
2019-01-06T01:10:36.857Z,0.00
2019-01-06T01:11:36.827Z,0.00
2019-01-06T01:12:36.818Z,0.00
2019-01-06T01:13:36.800Z,0.00
2019-01-06T01:14:36.789Z,0.00
2019-01-06T01:15:36.798Z,0.00
2019-01-06T01:16:36.767Z,0.00
2019-01-06T01:17:36.757Z,0.00
2019-01-06T01:18:36.840Z,0.00
2019-01-06T01:19:36.811Z,0.00
2019-01-06T01:20:36.742Z,0.00
2019-01-06T01:21:36.713Z,0.00
2019-01-06T01:22:36.700Z,0.00
2019-01-06T01:23:36.688Z,0.00
2019-01-06T01:24:36.680Z,0.00
2019-01-06T01:25:36.681Z,0.00
2019-01-06T01:26:36.656Z,0.00
2019-01-06T01:27:36.644Z,0.00
2019-01-06T01:28:36.643Z,0.00
2019-01-06T01:29:36.621Z,0.00
2019-01-06T01:30:36.641Z,0.00
2019-01-06T01:31:36.600Z,0.00
2019-01-06T01:32:36.588Z,0.00
2019-01-06T01:33:36.576Z,0.00
2019-01-06T01:34:36.564Z,0.00
2019-01-06T01:35:36.555Z,0.00
2019-01-06T01:36:36.562Z,0.00
2019-01-06T01:37:36.553Z,0.00
2019-01-06T01:38:36.522Z,0.00
2019-01-06T01:39:36.554Z,0.00
2019-01-06T01:40:37.406Z,0.00
2019-01-06T01:41:36.524Z,0.00
2019-01-06T01:42:36.476Z,0.00
2019-01-06T01:43:36.463Z,0.00
2019-01-06T01:44:36.454Z,0.00
2019-01-06T01:45:36.443Z,0.00
2019-01-06T01:46:36.434Z,0.00
2019-01-06T01:47:36.493Z,0.00
2019-01-06T01:48:36.455Z,0.00
2019-01-06T01:49:36.434Z,0.00
2019-01-06T01:50:36.397Z,0.00
2019-01-06T01:51:36.389Z,0.00
2019-01-06T01:52:36.406Z,0.00
2019-01-06T01:53:36.361Z,0.00
2019-01-06T01:54:36.346Z,0.00
2019-01-06T01:55:36.332Z,0.00
2019-01-06T01:56:36.320Z,0.00
2019-01-06T01:57:36.306Z,0.00
2019-01-06T01:58:36.313Z,0.00
2019-01-06T01:59:36.285Z,0.00
2019-01-06T02:00:36.273Z,0.00
2019-01-06T02:01:36.266Z,0.00
2019-01-06T02:02:36.253Z,0.00
2019-01-06T02:03:36.269Z,0.00
2019-01-06T02:04:36.248Z,0.00
2019-01-06T02:05:36.220Z,0.00
2019-01-06T02:06:36.207Z,0.00
2019-01-06T02:07:36.195Z,0.00
2019-01-06T02:08:36.185Z,0.00
2019-01-06T02:09:36.206Z,0.00
2019-01-06T02:10:36.163Z,0.00
2019-01-06T02:11:36.152Z,0.00
2019-01-06T02:12:36.138Z,0.00
2019-01-06T02:13:36.128Z,0.00
2019-01-06T02:14:36.121Z,0.00
2019-01-06T02:15:36.122Z,0.00
2019-01-06T02:16:36.093Z,0.00
2019-01-06T02:17:36.086Z,0.00
2019-01-06T02:18:36.074Z,0.00
2019-01-06T02:19:36.060Z,0.00
2019-01-06T02:20:36.079Z,0.00
2019-01-06T02:21:36.039Z,0.00
2019-01-06T02:22:36.025Z,0.00
2019-01-06T02:23:36.022Z,0.00
2019-01-06T02:24:36.007Z,0.00
2019-01-06T02:25:35.994Z,0.00
2019-01-06T02:26:35.998Z,0.00
2019-01-06T02:27:35.972Z,0.00
2019-01-06T02:28:35.961Z,0.00
2019-01-06T02:29:35.950Z,0.00
2019-01-06T02:30:35.942Z,0.00
2019-01-06T02:31:35.954Z,0.00
2019-01-06T02:32:35.914Z,0.00
2019-01-06T02:33:35.912Z,0.00
2019-01-06T02:34:35.893Z,0.00
2019-01-06T02:35:35.885Z,0.00
2019-01-06T02:36:35.870Z,0.00
2019-01-06T02:37:35.878Z,0.00
2019-01-06T02:38:35.848Z,0.00
2019-01-06T02:39:35.836Z,0.00
2019-01-06T02:40:35.846Z,0.00
2019-01-06T02:41:44.411Z,0.00
2019-01-06T02:42:45.453Z,0.00
2019-01-06T02:43:44.992Z,0.00
2019-01-06T02:44:44.527Z,0.00
2019-01-06T02:45:43.870Z,0.00
2019-01-06T02:46:44.181Z,0.00
2019-01-06T02:47:45.643Z,0.00
2019-01-06T02:48:35.741Z,0.00
2019-01-06T02:49:35.724Z,0.00
2019-01-06T02:50:35.737Z,0.00
2019-01-06T02:51:35.703Z,0.00
2019-01-06T02:52:35.697Z,0.00
2019-01-06T02:53:35.684Z,0.00
2019-01-06T02:54:35.671Z,0.00
2019-01-06T02:55:35.679Z,0.00
2019-01-06T02:56:35.647Z,0.00
2019-01-06T02:57:35.635Z,0.00
2019-01-06T02:58:35.623Z,0.00
2019-01-06T02:59:35.612Z,0.00
2019-01-06T03:00:35.620Z,0.00
2019-01-06T03:01:35.589Z,0.00
2019-01-06T03:02:35.578Z,0.00
2019-01-06T03:03:35.572Z,0.00
2019-01-06T03:04:35.557Z,0.00
2019-01-06T03:05:35.564Z,0.00
2019-01-06T03:06:35.536Z,0.00
2019-01-06T03:07:35.528Z,0.00
2019-01-06T03:08:35.514Z,0.00
2019-01-06T03:09:35.504Z,0.00
2019-01-06T03:10:35.506Z,0.00
2019-01-06T03:11:35.479Z,0.00
2019-01-06T03:12:35.467Z,0.00
2019-01-06T03:13:35.455Z,0.00
2019-01-06T03:14:35.445Z,0.00
2019-01-06T03:15:35.448Z,0.00
2019-01-06T03:16:35.424Z,0.00
2019-01-06T03:17:35.413Z,0.00
2019-01-06T03:18:35.398Z,0.00
2019-01-06T03:19:35.388Z,0.00
2019-01-06T03:20:35.399Z,0.00
2019-01-06T03:21:35.369Z,0.00
2019-01-06T03:22:35.363Z,0.00
2019-01-06T03:23:35.354Z,0.00
2019-01-06T03:24:35.332Z,0.00
2019-01-06T03:25:35.337Z,0.00
2019-01-06T03:26:35.311Z,0.00
2019-01-06T03:27:35.308Z,0.00
2019-01-06T03:28:35.290Z,0.00
2019-01-06T03:29:35.278Z,0.00
2019-01-06T03:30:35.288Z,0.00
2019-01-06T03:31:35.256Z,0.00
2019-01-06T03:32:35.245Z,0.00
2019-01-06T03:33:35.235Z,0.00
2019-01-06T03:34:35.221Z,0.00
2019-01-06T03:35:35.226Z,0.00
2019-01-06T03:36:35.198Z,0.00
2019-01-06T03:37:35.193Z,0.00
2019-01-06T03:38:35.176Z,0.00
2019-01-06T03:39:35.169Z,0.00
2019-01-06T03:40:35.171Z,0.00
2019-01-06T03:41:35.144Z,0.00
2019-01-06T03:42:35.135Z,0.00
2019-01-06T03:43:35.121Z,0.00
2019-01-06T03:44:35.112Z,0.00
2019-01-06T03:45:35.114Z,0.00
2019-01-06T03:46:35.088Z,0.00
2019-01-06T03:47:35.081Z,0.00
2019-01-06T03:48:35.064Z,0.00
2019-01-06T03:49:35.052Z,0.00
2019-01-06T03:50:35.055Z,0.00
2019-01-06T03:51:35.033Z,0.00
2019-01-06T03:52:35.035Z,0.00
2019-01-06T03:53:35.007Z,0.00
2019-01-06T03:54:35.001Z,0.00
2019-01-06T03:55:35.004Z,0.00
2019-01-06T03:56:34.973Z,0.00
2019-01-06T03:57:34.963Z,0.00
2019-01-06T03:58:34.956Z,0.00
2019-01-06T03:59:34.941Z,0.00
2019-01-06T04:00:34.948Z,0.00
2019-01-06T04:01:34.918Z,0.00
2019-01-06T04:02:34.910Z,0.00
2019-01-06T04:03:34.900Z,0.00
2019-01-06T04:04:34.886Z,0.00
2019-01-06T04:05:34.890Z,0.00
2019-01-06T04:06:34.861Z,0.00
2019-01-06T04:07:34.850Z,0.00
2019-01-06T04:08:34.844Z,0.00
2019-01-06T04:09:34.831Z,0.00
2019-01-06T04:10:34.839Z,0.00
2019-01-06T04:11:34.808Z,0.00
2019-01-06T04:12:34.796Z,0.00
2019-01-06T04:13:34.788Z,0.00
2019-01-06T04:14:34.772Z,0.00
2019-01-06T04:15:34.781Z,0.00
2019-01-06T04:16:34.752Z,0.00
2019-01-06T04:17:35.511Z,0.00
2019-01-06T04:18:34.728Z,0.00
2019-01-06T04:19:34.716Z,0.00
2019-01-06T04:20:34.726Z,0.00
2019-01-06T04:21:34.692Z,0.00
2019-01-06T04:22:34.682Z,0.00
2019-01-06T04:23:34.672Z,0.00
2019-01-06T04:24:34.659Z,0.00
2019-01-06T04:25:34.664Z,0.00
2019-01-06T04:26:34.637Z,0.00
2019-01-06T04:27:34.631Z,0.00
2019-01-06T04:28:34.619Z,0.00
2019-01-06T04:29:34.604Z,0.00
2019-01-06T04:30:34.616Z,0.00
2019-01-06T04:31:34.581Z,0.00
2019-01-06T04:32:34.571Z,0.00
2019-01-06T04:33:34.564Z,0.00
2019-01-06T04:34:34.546Z,0.00
2019-01-06T04:35:34.560Z,0.00
2019-01-06T04:36:34.524Z,0.00
2019-01-06T04:37:34.527Z,0.00
2019-01-06T04:38:34.501Z,0.00
2019-01-06T04:39:34.489Z,0.00
2019-01-06T04:40:34.498Z,0.00
2019-01-06T04:41:34.470Z,0.00
2019-01-06T04:42:34.461Z,0.00
2019-01-06T04:43:34.445Z,0.00
2019-01-06T04:44:34.433Z,0.00
2019-01-06T04:45:34.446Z,0.00
2019-01-06T04:46:34.423Z,0.00
2019-01-06T04:47:34.399Z,0.00
2019-01-06T04:48:34.394Z,0.00
2019-01-06T04:49:34.381Z,0.00
2019-01-06T04:50:34.383Z,0.00
2019-01-06T04:51:34.356Z,0.00
2019-01-06T04:52:34.344Z,0.00
2019-01-06T04:53:34.333Z,0.00
2019-01-06T04:54:34.324Z,0.00
2019-01-06T04:55:34.325Z,0.00
2019-01-06T04:56:34.303Z,0.00
2019-01-06T04:57:34.287Z,0.00
2019-01-06T04:58:34.277Z,0.00
2019-01-06T04:59:34.265Z,0.00
2019-01-06T05:00:34.275Z,0.00
2019-01-06T05:01:34.251Z,0.00
2019-01-06T05:02:34.230Z,0.00
2019-01-06T05:03:34.226Z,0.00
2019-01-06T05:04:34.210Z,0.00
2019-01-06T05:05:34.214Z,0.00
2019-01-06T05:06:34.193Z,0.00
2019-01-06T05:07:34.263Z,0.00
2019-01-06T05:08:34.164Z,0.00
2019-01-06T05:09:34.152Z,0.00
2019-01-06T05:10:34.157Z,0.00
2019-01-06T05:11:34.137Z,0.00
2019-01-06T05:12:34.119Z,0.00
2019-01-06T05:13:34.115Z,0.00
2019-01-06T05:14:34.099Z,0.00
2019-01-06T05:15:34.102Z,0.00
2019-01-06T05:16:34.077Z,0.00
2019-01-06T05:17:34.062Z,0.00
2019-01-06T05:18:34.057Z,0.00
2019-01-06T05:19:34.048Z,0.00
2019-01-06T05:20:34.050Z,0.00
2019-01-06T05:21:34.019Z,0.00
2019-01-06T05:22:34.007Z,0.00
2019-01-06T05:23:33.996Z,0.00
2019-01-06T05:24:33.989Z,0.00
2019-01-06T05:25:33.993Z,0.00
2019-01-06T05:26:33.967Z,0.00
2019-01-06T05:27:33.952Z,0.00
2019-01-06T05:28:33.940Z,0.00
2019-01-06T05:29:33.930Z,0.00
2019-01-06T05:30:33.934Z,0.00
2019-01-06T05:31:33.912Z,0.00
2019-01-06T05:32:33.895Z,0.00
2019-01-06T05:33:33.884Z,0.00
2019-01-06T05:34:33.873Z,0.00
2019-01-06T05:35:33.884Z,0.00
2019-01-06T05:36:33.849Z,0.00
2019-01-06T05:37:33.837Z,0.00
2019-01-06T05:38:33.825Z,0.00
2019-01-06T05:39:33.816Z,0.00
2019-01-06T05:40:33.826Z,0.00
2019-01-06T05:41:33.794Z,0.00
2019-01-06T05:42:33.786Z,0.00
2019-01-06T05:43:33.772Z,0.00
2019-01-06T05:44:33.760Z,0.00
2019-01-06T05:45:33.770Z,0.00
2019-01-06T05:46:33.738Z,0.00
2019-01-06T05:47:33.724Z,0.00
2019-01-06T05:48:33.717Z,0.00
2019-01-06T05:49:33.703Z,0.00
2019-01-06T05:50:33.707Z,0.00
2019-01-06T05:51:33.679Z,0.00
2019-01-06T05:52:33.670Z,0.00
2019-01-06T05:53:33.658Z,0.00
2019-01-06T05:54:33.647Z,0.00
2019-01-06T05:55:33.655Z,0.00
2019-01-06T05:56:33.624Z,0.00
2019-01-06T05:57:33.613Z,0.00
2019-01-06T05:58:33.606Z,0.00
2019-01-06T05:59:33.592Z,0.00
2019-01-06T06:00:33.595Z,0.00
2019-01-06T06:01:33.568Z,0.00
2019-01-06T06:02:33.555Z,0.00
2019-01-06T06:03:33.547Z,0.00
2019-01-06T06:04:33.534Z,0.00
2019-01-06T06:05:33.540Z,0.00
2019-01-06T06:06:33.512Z,0.00
2019-01-06T06:07:33.501Z,0.00
2019-01-06T06:08:33.493Z,0.00
2019-01-06T06:09:33.481Z,0.00
2019-01-06T06:10:33.484Z,0.00
2019-01-06T06:11:33.461Z,0.00
2019-01-06T06:12:33.444Z,0.00
2019-01-06T06:13:33.432Z,0.00
2019-01-06T06:14:33.422Z,0.00
2019-01-06T06:15:33.425Z,0.00
2019-01-06T06:16:33.401Z,0.00
2019-01-06T06:17:33.393Z,0.00
2019-01-06T06:18:33.384Z,0.00
2019-01-06T06:19:33.364Z,0.00
2019-01-06T06:20:33.371Z,0.00
2019-01-06T06:21:33.343Z,0.00
2019-01-06T06:22:33.330Z,0.00
2019-01-06T06:23:33.320Z,0.00
2019-01-06T06:24:33.309Z,0.00
2019-01-06T06:25:33.316Z,0.00
2019-01-06T06:26:33.288Z,0.00
2019-01-06T06:27:33.275Z,0.00
2019-01-06T06:28:33.268Z,0.00
2019-01-06T06:29:33.256Z,0.00
2019-01-06T06:30:33.261Z,0.00
2019-01-06T06:31:33.230Z,0.00
2019-01-06T06:32:33.221Z,0.00
2019-01-06T06:33:33.208Z,0.00
2019-01-06T06:34:33.200Z,0.00
2019-01-06T06:35:33.212Z,0.00
2019-01-06T06:36:33.173Z,0.00
2019-01-06T06:37:33.161Z,0.00
2019-01-06T06:38:34.028Z,0.00
2019-01-06T06:39:33.139Z,0.00
2019-01-06T06:40:33.159Z,0.00
2019-01-06T06:41:33.121Z,0.00
2019-01-06T06:42:33.107Z,0.00
2019-01-06T06:43:33.097Z,0.00
2019-01-06T06:44:33.087Z,0.00
2019-01-06T06:45:33.089Z,0.00
2019-01-06T06:46:33.067Z,0.00
2019-01-06T06:47:33.118Z,4.00
2019-01-06T06:48:33.041Z,4.00
2019-01-06T06:49:33.030Z,0.00
2019-01-06T06:50:33.034Z,0.00
2019-01-06T06:51:33.004Z,0.00
2019-01-06T06:52:32.994Z,4.00
2019-01-06T06:53:32.983Z,4.00
2019-01-06T06:54:32.971Z,0.00
2019-01-06T06:55:32.976Z,4.00
2019-01-06T06:56:32.947Z,4.00
2019-01-06T06:57:32.939Z,4.00
2019-01-06T06:58:32.927Z,4.00
2019-01-06T06:59:32.914Z,4.00
2019-01-06T07:00:32.922Z,8.00
2019-01-06T07:01:32.891Z,4.00
2019-01-06T07:02:32.881Z,8.00
2019-01-06T07:03:32.878Z,8.00
2019-01-06T07:04:32.861Z,12.00
2019-01-06T07:05:32.865Z,12.00
2019-01-06T07:06:32.837Z,12.00
2019-01-06T07:07:32.823Z,12.00
2019-01-06T07:08:32.816Z,12.00
2019-01-06T07:09:32.808Z,16.00
2019-01-06T07:10:32.809Z,16.00
2019-01-06T07:11:32.781Z,20.00
2019-01-06T07:12:32.767Z,16.00
2019-01-06T07:13:32.756Z,20.00
2019-01-06T07:14:32.747Z,24.00
2019-01-06T07:15:32.750Z,24.00
2019-01-06T07:16:32.724Z,24.00
2019-01-06T07:17:32.713Z,28.00
2019-01-06T07:18:32.700Z,28.00
2019-01-06T07:19:32.690Z,32.00
2019-01-06T07:20:32.696Z,32.00
2019-01-06T07:21:32.666Z,36.00
2019-01-06T07:22:32.655Z,40.00
2019-01-06T07:23:32.647Z,40.00
2019-01-06T07:24:32.632Z,40.00
2019-01-06T07:25:32.643Z,48.00
2019-01-06T07:26:32.639Z,52.00
2019-01-06T07:27:32.599Z,56.00
2019-01-06T07:28:32.587Z,64.00
2019-01-06T07:29:32.578Z,68.00
2019-01-06T07:30:41.851Z,68.00
2019-01-06T07:31:41.253Z,68.00
2019-01-06T07:32:41.292Z,72.00
2019-01-06T07:33:41.338Z,72.00
2019-01-06T07:34:42.372Z,76.00
2019-01-06T07:35:40.268Z,80.00
2019-01-06T07:36:41.955Z,88.00
2019-01-06T07:37:32.487Z,92.00
2019-01-06T07:38:32.477Z,92.00
2019-01-06T07:39:32.464Z,92.00
2019-01-06T07:40:32.469Z,96.00
2019-01-06T07:41:32.441Z,108.00
2019-01-06T07:42:32.429Z,112.00
2019-01-06T07:43:32.419Z,120.00
2019-01-06T07:44:32.409Z,124.00
2019-01-06T07:45:32.415Z,128.00
2019-01-06T07:46:32.384Z,132.00
2019-01-06T07:47:32.374Z,136.00
2019-01-06T07:48:32.363Z,140.00
2019-01-06T07:49:32.355Z,152.00
2019-01-06T07:50:32.354Z,156.00
2019-01-06T07:51:32.329Z,164.00
2019-01-06T07:52:32.317Z,168.00
2019-01-06T07:53:32.305Z,176.00
2019-01-06T07:54:32.294Z,180.00
2019-01-06T07:55:32.308Z,192.00
2019-01-06T07:56:32.272Z,192.00
2019-01-06T07:57:32.262Z,192.00
2019-01-06T07:58:32.250Z,200.00
2019-01-06T07:59:32.239Z,208.00
2019-01-06T08:00:32.243Z,208.00
2019-01-06T08:01:32.217Z,216.00
2019-01-06T08:02:32.206Z,224.00
2019-01-06T08:03:32.192Z,228.00
2019-01-06T08:04:32.182Z,232.00
2019-01-06T08:05:32.190Z,228.00
2019-01-06T08:06:32.167Z,244.00
2019-01-06T08:07:32.150Z,252.00
2019-01-06T08:08:32.138Z,252.00
2019-01-06T08:09:32.174Z,260.00
2019-01-06T08:10:32.137Z,268.00
2019-01-06T08:11:32.108Z,260.00
2019-01-06T08:12:32.093Z,256.00
2019-01-06T08:13:32.083Z,264.00
2019-01-06T08:14:32.070Z,272.00
2019-01-06T08:15:32.079Z,272.00
2019-01-06T08:16:32.048Z,284.00
2019-01-06T08:17:32.036Z,300.00
2019-01-06T08:18:32.025Z,288.00
2019-01-06T08:19:32.014Z,296.00
2019-01-06T08:20:32.896Z,320.00
2019-01-06T08:21:31.996Z,348.00
2019-01-06T08:22:31.979Z,368.00
2019-01-06T08:23:31.970Z,376.00
2019-01-06T08:24:31.958Z,388.00
2019-01-06T08:25:31.966Z,420.00
2019-01-06T08:26:31.935Z,412.00
2019-01-06T08:27:31.923Z,448.00
2019-01-06T08:28:31.911Z,472.00
2019-01-06T08:29:31.900Z,500.00
2019-01-06T08:30:31.904Z,532.00
2019-01-06T08:31:31.895Z,516.00
2019-01-06T08:32:31.868Z,544.00
2019-01-06T08:33:31.855Z,540.00
2019-01-06T08:34:31.843Z,600.00
2019-01-06T08:35:31.853Z,580.00
2019-01-06T08:36:31.820Z,576.00
2019-01-06T08:37:31.809Z,552.00
2019-01-06T08:38:31.800Z,576.00
2019-01-06T08:39:31.789Z,604.00
2019-01-06T08:40:31.795Z,624.00
2019-01-06T08:41:31.766Z,648.00
2019-01-06T08:42:31.758Z,672.00
2019-01-06T08:43:31.743Z,696.00
2019-01-06T08:44:31.732Z,744.00
2019-01-06T08:45:31.739Z,760.00
2019-01-06T08:46:31.709Z,744.00
2019-01-06T08:47:31.699Z,760.00
2019-01-06T08:48:31.686Z,864.00
2019-01-06T08:49:31.749Z,828.00
2019-01-06T08:50:31.682Z,820.00
2019-01-06T08:51:31.662Z,872.00
2019-01-06T08:52:31.645Z,872.00
2019-01-06T08:53:31.631Z,852.00
2019-01-06T08:54:31.620Z,1008.00
2019-01-06T08:55:31.627Z,1012.00
2019-01-06T08:56:32.553Z,940.00
2019-01-06T08:57:31.591Z,944.00
2019-01-06T08:58:31.575Z,964.00
2019-01-06T08:59:31.568Z,964.00
2019-01-06T09:00:31.568Z,984.00
2019-01-06T09:01:31.541Z,1012.00
2019-01-06T09:02:31.531Z,948.00
2019-01-06T09:03:31.517Z,988.00
2019-01-06T09:04:31.509Z,1088.00
2019-01-06T09:05:31.515Z,1040.00
2019-01-06T09:06:31.482Z,1100.00
2019-01-06T09:07:31.472Z,1104.00
2019-01-06T09:08:31.464Z,1052.00
2019-01-06T09:09:31.452Z,1104.00
2019-01-06T09:10:31.456Z,1212.00
2019-01-06T09:11:31.428Z,1188.00
2019-01-06T09:12:31.459Z,1164.00
2019-01-06T09:13:31.420Z,1084.00
2019-01-06T09:14:32.393Z,1072.00
2019-01-06T09:15:31.404Z,1188.00
2019-01-06T09:16:31.375Z,1200.00
2019-01-06T09:17:31.362Z,1164.00
2019-01-06T09:18:31.349Z,1268.00
2019-01-06T09:19:31.339Z,1296.00
2019-01-06T09:20:31.341Z,1396.00
2019-01-06T09:21:31.396Z,1300.00
2019-01-06T09:22:31.305Z,1268.00
2019-01-06T09:23:31.309Z,1428.00
2019-01-06T09:24:31.282Z,1524.00
2019-01-06T09:25:31.318Z,1552.00
2019-01-06T09:26:31.261Z,1572.00
2019-01-06T09:27:31.249Z,1548.00
2019-01-06T09:28:31.285Z,1544.00
2019-01-06T09:29:32.523Z,1648.00
2019-01-06T09:30:31.317Z,1588.00
2019-01-06T09:31:31.207Z,1644.00
2019-01-06T09:32:31.193Z,1648.00
2019-01-06T09:33:31.182Z,1568.00
2019-01-06T09:34:31.173Z,1480.00
2019-01-06T09:35:31.268Z,1432.00
2019-01-06T09:36:31.155Z,1492.00
2019-01-06T09:37:31.143Z,1600.00
2019-01-06T09:38:31.125Z,1600.00
2019-01-06T09:39:31.116Z,1612.00
2019-01-06T09:40:31.124Z,1660.00
2019-01-06T09:41:31.092Z,1516.00
2019-01-06T09:42:31.086Z,1556.00
2019-01-06T09:43:31.068Z,1532.00
2019-01-06T09:44:31.062Z,1452.00
2019-01-06T09:45:31.122Z,1392.00
2019-01-06T09:46:31.037Z,1292.00
2019-01-06T09:47:31.024Z,1232.00
2019-01-06T09:48:32.045Z,1252.00
2019-01-06T09:49:32.047Z,1248.00
2019-01-06T09:50:31.009Z,1236.00
2019-01-06T09:51:30.980Z,1280.00
2019-01-06T09:52:30.968Z,1328.00
2019-01-06T09:53:30.959Z,1424.00
2019-01-06T09:54:30.945Z,1380.00
2019-01-06T09:55:31.485Z,1448.00
2019-01-06T09:56:30.924Z,1624.00
2019-01-06T09:57:30.914Z,1640.00
2019-01-06T09:58:30.901Z,1576.00
2019-01-06T09:59:30.890Z,1488.00
2019-01-06T10:00:30.902Z,1552.00
2019-01-06T10:01:30.873Z,1472.00
2019-01-06T10:02:30.858Z,1412.00
2019-01-06T10:03:30.845Z,1364.00
2019-01-06T10:04:34.983Z,1340.00
2019-01-06T10:05:30.856Z,1428.00
2019-01-06T10:06:30.815Z,1444.00
2019-01-06T10:07:30.800Z,1464.00
2019-01-06T10:08:30.790Z,1544.00
2019-01-06T10:09:30.777Z,1508.00
2019-01-06T10:10:30.780Z,1376.00
2019-01-06T10:11:30.754Z,1288.00
2019-01-06T10:12:30.743Z,1212.00
2019-01-06T10:13:30.734Z,1180.00
2019-01-06T10:14:30.723Z,1188.00
2019-01-06T10:15:30.733Z,1140.00
2019-01-06T10:16:30.702Z,1164.00
2019-01-06T10:17:30.688Z,1132.00
2019-01-06T10:18:30.698Z,1172.00
2019-01-06T10:19:31.670Z,1200.00
2019-01-06T10:20:30.677Z,1196.00
2019-01-06T10:21:30.644Z,1220.00
2019-01-06T10:22:30.633Z,1236.00
2019-01-06T10:23:30.713Z,1284.00
2019-01-06T10:24:30.610Z,1320.00
2019-01-06T10:25:30.619Z,1356.00
2019-01-06T10:26:30.592Z,1456.00
2019-01-06T10:27:30.586Z,1532.00
2019-01-06T10:28:30.570Z,1684.00
2019-01-06T10:29:30.556Z,1668.00
2019-01-06T10:30:30.577Z,1844.00
2019-01-06T10:31:30.558Z,1808.00
2019-01-06T10:32:30.522Z,1816.00
2019-01-06T10:33:30.509Z,1748.00
2019-01-06T10:34:30.498Z,1700.00
2019-01-06T10:35:30.507Z,1680.00
2019-01-06T10:36:30.477Z,1756.00
2019-01-06T10:37:30.463Z,1684.00
2019-01-06T10:38:30.453Z,1656.00
2019-01-06T10:39:30.444Z,1544.00
2019-01-06T10:40:30.452Z,1436.00
2019-01-06T10:41:30.421Z,1348.00
2019-01-06T10:42:30.409Z,1328.00
2019-01-06T10:43:30.399Z,1344.00
2019-01-06T10:44:30.388Z,1396.00
2019-01-06T10:45:30.393Z,1536.00
2019-01-06T10:46:30.363Z,1556.00
2019-01-06T10:47:30.352Z,1524.00
2019-01-06T10:48:30.344Z,1584.00
2019-01-06T10:49:30.337Z,1552.00
2019-01-06T10:50:30.336Z,1472.00
2019-01-06T10:51:30.308Z,1320.00
2019-01-06T10:52:30.296Z,1288.00
2019-01-06T10:53:30.288Z,1200.00
2019-01-06T10:54:30.280Z,1116.00
2019-01-06T10:55:30.282Z,1248.00
2019-01-06T10:56:30.252Z,1256.00
2019-01-06T10:57:30.243Z,1132.00
2019-01-06T10:58:30.230Z,1016.00
2019-01-06T10:59:30.222Z,912.00
2019-01-06T11:00:30.224Z,884.00
2019-01-06T11:01:30.196Z,876.00
2019-01-06T11:02:30.194Z,908.00
2019-01-06T11:03:30.176Z,988.00
2019-01-06T11:04:30.166Z,1064.00
2019-01-06T11:05:30.169Z,1180.00
2019-01-06T11:06:30.140Z,1244.00
2019-01-06T11:07:30.131Z,1316.00
2019-01-06T11:08:30.117Z,1308.00
2019-01-06T11:09:30.107Z,1276.00
2019-01-06T11:10:30.113Z,1268.00
2019-01-06T11:11:30.083Z,1252.00
2019-01-06T11:12:30.076Z,1184.00
2019-01-06T11:13:30.063Z,1100.00
2019-01-06T11:14:30.050Z,1132.00
2019-01-06T11:15:30.060Z,1152.00
2019-01-06T11:16:30.028Z,1348.00
2019-01-06T11:17:30.017Z,1260.00
2019-01-06T11:18:30.006Z,1360.00
2019-01-06T11:19:29.999Z,1404.00
2019-01-06T11:20:30.004Z,1264.00
2019-01-06T11:21:29.977Z,1220.00
2019-01-06T11:22:29.967Z,1224.00
2019-01-06T11:23:29.949Z,1416.00
2019-01-06T11:24:29.939Z,1464.00
2019-01-06T11:25:29.945Z,1452.00
2019-01-06T11:26:29.915Z,1520.00
2019-01-06T11:27:29.906Z,1528.00
2019-01-06T11:28:29.895Z,1548.00
2019-01-06T11:29:29.883Z,1564.00
2019-01-06T11:30:29.889Z,1532.00
2019-01-06T11:31:29.862Z,1548.00
2019-01-06T11:32:29.853Z,1568.00
2019-01-06T11:33:29.839Z,1544.00
2019-01-06T11:34:29.828Z,1576.00
2019-01-06T11:35:29.836Z,1608.00
2019-01-06T11:36:29.804Z,1516.00
2019-01-06T11:37:29.793Z,1600.00
2019-01-06T11:38:29.782Z,1524.00
2019-01-06T11:39:29.772Z,1492.00
2019-01-06T11:40:29.777Z,1380.00
2019-01-06T11:41:29.752Z,1380.00
2019-01-06T11:42:29.739Z,1412.00
2019-01-06T11:43:29.728Z,1320.00
2019-01-06T11:44:29.716Z,1244.00
2019-01-06T11:45:29.724Z,1232.00
2019-01-06T11:46:29.693Z,1276.00
2019-01-06T11:47:29.686Z,1260.00
2019-01-06T11:48:29.670Z,1196.00
2019-01-06T11:49:29.659Z,1152.00
2019-01-06T11:50:29.664Z,1136.00
2019-01-06T11:51:29.639Z,1156.00
2019-01-06T11:52:29.647Z,1104.00
2019-01-06T11:53:29.613Z,1044.00
2019-01-06T11:54:29.696Z,1092.00
2019-01-06T11:55:29.644Z,1164.00
2019-01-06T11:56:29.581Z,1100.00
2019-01-06T11:57:29.571Z,1052.00
2019-01-06T11:58:29.561Z,1036.00
2019-01-06T11:59:29.548Z,1024.00
2019-01-06T12:00:29.555Z,968.00
2019-01-06T12:01:29.524Z,980.00
2019-01-06T12:02:29.513Z,968.00
2019-01-06T12:03:29.504Z,932.00
2019-01-06T12:04:29.495Z,1016.00
2019-01-06T12:05:29.501Z,1032.00
2019-01-06T12:06:29.470Z,992.00
2019-01-06T12:07:29.458Z,968.00
2019-01-06T12:08:29.448Z,1032.00
2019-01-06T12:09:29.435Z,1060.00
2019-01-06T12:10:29.441Z,1028.00
2019-01-06T12:11:29.411Z,1000.00
2019-01-06T12:12:29.403Z,956.00
2019-01-06T12:13:29.391Z,964.00
2019-01-06T12:14:29.382Z,968.00
2019-01-06T12:15:29.391Z,960.00
2019-01-06T12:16:29.361Z,912.00
2019-01-06T12:17:29.347Z,912.00
2019-01-06T12:18:29.356Z,924.00
2019-01-06T12:19:33.745Z,944.00
2019-01-06T12:20:39.069Z,944.00
2019-01-06T12:21:39.084Z,928.00
2019-01-06T12:22:39.118Z,888.00
2019-01-06T12:23:37.657Z,880.00
2019-01-06T12:24:37.700Z,864.00
2019-01-06T12:25:38.534Z,836.00
2019-01-06T12:26:29.273Z,852.00
2019-01-06T12:27:29.232Z,844.00
2019-01-06T12:28:29.259Z,844.00
2019-01-06T12:29:29.217Z,836.00
2019-01-06T12:30:29.217Z,832.00
2019-01-06T12:31:29.187Z,836.00
2019-01-06T12:32:29.176Z,792.00
2019-01-06T12:33:29.174Z,764.00
2019-01-06T12:34:29.157Z,740.00
2019-01-06T12:35:29.161Z,796.00
2019-01-06T12:36:29.132Z,836.00
2019-01-06T12:37:29.122Z,856.00
2019-01-06T12:38:29.112Z,824.00
2019-01-06T12:39:29.104Z,860.00
2019-01-06T12:40:29.113Z,956.00
2019-01-06T12:41:29.076Z,964.00
2019-01-06T12:42:29.065Z,996.00
2019-01-06T12:43:29.054Z,1024.00
2019-01-06T12:44:29.039Z,1036.00
2019-01-06T12:45:29.044Z,1052.00
2019-01-06T12:46:29.018Z,1052.00
2019-01-06T12:47:29.016Z,1032.00
2019-01-06T12:48:28.999Z,1092.00
2019-01-06T12:49:28.988Z,972.00
2019-01-06T12:50:28.995Z,924.00